Aérodrome :
LOGIN :

S'inscrire | Disclaimer

   EN    FR    IT 

 










Légende :    VFR   VFR Marginal   IFR   IFR Intensif   IFR Très Intensif
Visi : 
Plafond : 
>= 8 km
>= 3000ft
5 à 8 km
1000 à 3000 ft
1500m à 5 km
500 à 1000 ft
800 à 1500m
200 à 500 ft
< 800m
< 200 ft
Symboles :   Orages  Brouillard  Fortes neiges  Fortes précipitations  Vent > 20 kt
SIGMETs :   Divers  Orages  Givrage  Turbulence  Onde Orograph.  Cendres Volcan.






- Altitude de l'aérodrome : 751 ft
- Code IATA : ENC


LFSN - Nancy Essey

DERNIER METAR :
  • 200800Z AUTO VRB01KT 9999 FEW007 BKN094 OVC110 14/13 Q1006

METARs EXPIRÉS :
  • 200730Z AUTO VRB01KT 9999 SCT006 OVC088 13/13 Q1006
  • 200700Z AUTO VRB02KT 9999 BKN006 OVC076 13/12 Q1006
  • 200630Z AUTO VRB02KT 9999 BKN006 OVC070 13/12 Q1006
  • 200600Z AUTO VRB03KT 9999 FEW006 BKN068 OVC088 13/12 Q1006
  • 200530Z AUTO VRB03KT 9999 FEW005/// BKN045/// BKN066/// ///TCU 13/12 Q1006

Prévision TAF périmée.



MET'MAP, la Météo Aéronautique d'un coup d'oeil ! - Copyright ORBIFLY Décembre 2007 - Disclaimer

ORBIFLY MET'MAP TEAM :

Programmation & Développement : Alexandra Zaïnal
Conception & Développement : Baudouin d'Aumeries
Co-Programmation & Développement : Marc-Olivier Méhu
Soutien technique & logistique : Manuel Goepfert

Contact : metmap@orbifly.com




SOURCES & CREDITS :

   NOAA